Hl Atlas — D7PA — position and weather

sailwx.info

Track history (hours):
 
Tides and Currents Weather Stations Pressure Air Temp Water Temp Dewpoint Dewpoint Depression Visibility Wind Speed Wind Dir Waves Ship Positions

Hl Atlas

Last reported at 2017-Sep-19 23:03 UTC. Time now 2017-Oct-20 03:36 UTC.
Position S 27°36' E 153°54'.
Warning: this ship's position is 30 days out of date.

Length 270 m; draft 15.3 m.

Type: Cargo ship. MMSI: 440332000.

Date/timePositionNaut miles runAvg speedWind from/ knotsBaromVisibWave heightAir tempDewpointWater temp
2017-Sep-19 23:03S 27°36' E 153°54'112.4
2017-Sep-19 23:00S 27°37' E 153°54'612.2
2017-Sep-19 22:30S 27°43' E 153°56'612.2
2017-Sep-19 22:00S 27°49' E 153°57'612.0
2017-Sep-19 21:30S 27°55' E 153°57'611.8
2017-Sep-19 21:00S 28°01' E 153°59'611.3
2017-Sep-19 20:29S 28°07' E 153°58'511.0
2017-Sep-19 20:00S 28°12' E 153°57'510.5
2017-Sep-19 19:30S 28°17' E 153°57'5 9.8
2017-Sep-19 18:57S 28°23' E 153°56'4 9.5
2017-Sep-19 18:30S 28°27' E 153°56'5 9.5
2017-Sep-19 18:00S 28°32' E 153°55'198 9.1
2017-Sep-18 20:11S 31°45' E 153°06'3 8.1
2017-Sep-18 19:51S 31°47' E 153°05'3 8.1
2017-Sep-18 19:30S 31°50' E 153°04'4 8.1
2017-Sep-18 19:00S 31°54' E 153°03'4 8.6
2017-Sep-18 18:30S 31°58' E 153°01'5 9.1
2017-Sep-18 18:00S 32°02' E 152°59'6 9.7
2017-Sep-18 17:26S 32°07' E 152°57'410.0
2017-Sep-18 17:00S 32°11' E 152°55'5 9.8
2017-Sep-18 16:30S 32°15' E 152°52'510.0
2017-Sep-18 16:00S 32°19' E 152°49'510.1
2017-Sep-18 15:30S 32°24' E 152°45'510.2
2017-Sep-18 15:00S 32°28' E 152°42'5 9.9
2017-Sep-18 14:30S 32°32' E 152°39'5 9.9
2017-Sep-18 14:00S 32°36' E 152°36'510.1
2017-Sep-18 13:30S 32°41' E 152°33'510.1
2017-Sep-18 13:00S 32°45' E 152°29'5 9.7
2017-Sep-18 12:30S 32°49' E 152°26'510.2
2017-Sep-18 12:00S 32°50' E 152°20'510.4
2017-Sep-18 11:30S 32°51' E 152°14'510.2
2017-Sep-18 11:00S 32°53' E 152°08'5 9.9
2017-Sep-18 10:30S 32°54' E 152°02'510.5
2017-Sep-18 10:00S 32°55' E 151°56'5 9.6
2017-Sep-18 09:30S 32°56' E 151°51'3 5.8
2017-Sep-18 09:00S 32°55' E 151°48'1 2.8
2017-Sep-18 08:30S 32°54' E 151°46'1 2.9
2017-Sep-18 08:00S 32°53' E 151°45'0 0.3
2017-Sep-18 07:28S 32°53' E 151°45'0 0.0
2017-Sep-18 06:55S 32°53' E 151°45'0 0.0
2017-Sep-18 06:28S 32°53' E 151°45'0 0.0
2017-Sep-18 05:58S 32°53' E 151°45'0 0.0
2017-Sep-18 05:25S 32°53' E 151°45'0 0.0
2017-Sep-18 04:58S 32°53' E 151°45'0 0.0
2017-Sep-18 04:28S 32°53' E 151°45'0 0.0
2017-Sep-18 03:52S 32°53' E 151°45'0 0.0
2017-Sep-18 03:16S 32°53' E 151°45'0 0.0
2017-Sep-18 02:58S 32°53' E 151°45'0 0.0
2017-Sep-18 02:04S 32°53' E 151°45'0 0.1
2017-Sep-18 01:58S 32°53' E 151°45'0 0.0
2017-Sep-18 01:28S 32°53' E 151°45'0 0.0
2017-Sep-18 00:49S 32°53' E 151°45'0 0.0
2017-Sep-17 23:52S 32°53' E 151°45'0 0.0
2017-Sep-17 23:25S 32°53' E 151°45'0 0.0
2017-Sep-17 22:55S 32°53' E 151°45'0 0.0
2017-Sep-17 22:25S 32°53' E 151°45'0 0.0
2017-Sep-17 21:58S 32°53' E 151°45'0 0.0
2017-Sep-17 21:28S 32°53' E 151°45'0 0.0
2017-Sep-17 20:55S 32°53' E 151°45'0 0.0
2017-Sep-17 20:28S 32°53' E 151°45'0 0.0
2017-Sep-17 19:19S 32°53' E 151°45'0 0.0
2017-Sep-17 18:55S 32°53' E 151°45'0 0.0
2017-Sep-17 18:28S 32°53' E 151°45'0 0.0
2017-Sep-17 17:58S 32°53' E 151°45'0 0.0
2017-Sep-17 17:22S 32°53' E 151°45'0 0.0
2017-Sep-17 16:58S 32°53' E 151°45'0 0.0
2017-Sep-17 16:25S 32°53' E 151°45'0 0.0
2017-Sep-17 15:58S 32°53' E 151°45'0 0.0
2017-Sep-17 15:28S 32°53' E 151°45'0 0.0
2017-Sep-17 14:58S 32°53' E 151°45'0 0.0
2017-Sep-17 14:28S 32°53' E 151°45'0 0.0
2017-Sep-17 13:58S 32°53' E 151°45'0 0.0
2017-Sep-17 13:28S 32°53' E 151°45'0 0.0
2017-Sep-17 12:58S 32°53' E 151°45'0 0.0
2017-Sep-17 12:28S 32°53' E 151°45'0 0.0
2017-Sep-17 11:58S 32°53' E 151°45'0 0.0
2017-Sep-17 11:07S 32°53' E 151°45'0 0.0
2017-Sep-17 10:58S 32°53' E 151°45'0 0.0
2017-Sep-17 10:28S 32°53' E 151°45'0 0.0
2017-Sep-17 09:58S 32°53' E 151°45'0 0.0
2017-Sep-17 09:28S 32°53' E 151°45'0 0.0
2017-Sep-17 08:52S 32°53' E 151°45'0 0.0
2017-Sep-17 08:28S 32°53' E 151°45'0 0.0
2017-Sep-17 07:43S 32°53' E 151°45'0 0.0
2017-Sep-17 07:28S 32°53' E 151°45'0 0.0
2017-Sep-17 06:58S 32°53' E 151°45'0 0.0
2017-Sep-17 06:28S 32°53' E 151°45'0 0.0
2017-Sep-17 05:55S 32°53' E 151°45'0 0.0
2017-Sep-17 05:13S 32°53' E 151°45'0 0.0
2017-Sep-17 04:58S 32°53' E 151°45'0 0.0
2017-Sep-17 04:28S 32°53' E 151°45'0 0.0
2017-Sep-17 03:55S 32°53' E 151°45'0 0.0
2017-Sep-17 03:25S 32°53' E 151°45'0 0.0
2017-Sep-17 02:58S 32°53' E 151°45'0 0.0
2017-Sep-17 02:28S 32°53' E 151°45'0 0.0
2017-Sep-17 01:58S 32°53' E 151°45'0 0.0
2017-Sep-17 01:28S 32°53' E 151°45'0 0.0
2017-Sep-17 00:58S 32°53' E 151°45'0 0.0
2017-Sep-17 00:28S 32°53' E 151°45'0 0.0
2017-Sep-16 23:58S 32°53' E 151°45'0 0.0
2017-Sep-16 23:25S 32°53' E 151°45'0 0.0
2017-Sep-16 23:00S 32°53' E 151°45'1 2.1
2017-Sep-16 22:25S 32°54' E 151°46'2 4.2
2017-Sep-16 22:00S 32°55' E 151°48'4 8.2
2017-Sep-16 21:30S 32°57' E 151°52'3 6.7
2017-Sep-16 21:00S 33°00' E 151°53'2 4.4
2017-Sep-16 20:30S 33°02' E 151°52'6 7.3
2017-Sep-16 19:40S 33°07' E 151°57'2 9.8
2017-Sep-16 19:30S 33°06' E 151°59'5 9.9
2017-Sep-16 19:00S 33°02' E 152°03'5 9.2
2017-Sep-16 18:30S 32°59' E 152°07'5 9.1
2017-Sep-16 18:00S 32°57' E 152°12'4 8.3
2017-Sep-16 17:30S 32°56' E 152°17'2 3.3
2017-Sep-16 16:59S 32°55' E 152°15'1 2.4
2017-Sep-16 16:29S 32°56' E 152°14'1 2.4
2017-Sep-16 16:00S 32°57' E 152°13'1 2.1
2017-Sep-16 15:29S 32°58' E 152°12'1 1.9
2017-Sep-16 14:59S 32°59' E 152°12'1 2.0
2017-Sep-16 14:29S 32°60' E 152°11'1 1.9
2017-Sep-16 13:59S 33°00' E 152°11'1 2.0
2017-Sep-16 13:29S 33°01' E 152°10'1 2.1
2017-Sep-16 12:59S 33°02' E 152°09'1 2.3
2017-Sep-16 12:29S 33°03' E 152°09'1 2.5
2017-Sep-16 12:00S 33°04' E 152°08'1 2.7
2017-Sep-16 11:29S 33°05' E 152°07'1 2.7
2017-Sep-16 10:59S 33°06' E 152°06'1 3.1
2017-Sep-16 10:30S 33°07' E 152°04'5 9.2
2017-Sep-16 10:00S 33°02' E 152°05'510.2
2017-Sep-16 09:30S 32°58' E 152°08'1 1.4
2017-Sep-16 09:00S 32°57' E 152°08'1 2.3
2017-Sep-16 08:30S 32°58' E 152°07'1 2.6
2017-Sep-16 08:00S 32°59' E 152°07'1 2.7
2017-Sep-16 07:28S 33°01' E 152°06'2 3.8
2017-Sep-16 07:01S 33°02' E 152°06'5 9.9
2017-Sep-16 06:31S 33°03' E 152°12'510.9
2017-Sep-16 06:00S 33°03' E 152°18'1 2.2
2017-Sep-16 05:28S 33°05' E 152°18'1 1.9
2017-Sep-16 04:58S 33°05' E 152°17'1 2.0
2017-Sep-16 04:28S 33°05' E 152°16'1 1.7
2017-Sep-16 03:49S 33°06' E 152°15'1 1.7
2017-Sep-16 03:19S 33°06' E 152°14'1 1.7
2017-Sep-16 02:58S 33°06' E 152°13'1 1.7
2017-Sep-16 02:28S 33°06' E 152°12'1 1.6
2017-Sep-16 01:55S 33°07' E 152°11'1 1.8
2017-Sep-16 01:25S 33°07' E 152°10'1 1.7
2017-Sep-16 00:58S 33°07' E 152°09'1 1.5
2017-Sep-16 00:28S 33°07' E 152°08'1 1.7
2017-Sep-15 23:58S 33°08' E 152°07'1 1.7
2017-Sep-15 23:28S 33°08' E 152°06'1 1.8
2017-Sep-15 22:49S 33°08' E 152°05'1 2.0
2017-Sep-15 22:28S 33°08' E 152°04'1 2.1
2017-Sep-15 21:58S 33°09' E 152°03'1 1.9
2017-Sep-15 21:28S 33°09' E 152°02'2 3.3
2017-Sep-15 21:00S 33°08' E 152°00'611.5
2017-Sep-15 20:30S 33°03' E 151°57'4 7.2
2017-Sep-15 20:00S 33°00' E 152°00'510.4
2017-Sep-15 19:30S 32°58' E 152°06'611.6
2017-Sep-15 19:00S 32°56' E 152°13'611.3
2017-Sep-15 18:30S 32°54' E 152°19'611.6
2017-Sep-15 18:00S 32°52' E 152°25'611.2
2017-Sep-15 17:30S 32°50' E 152°31'611.9
2017-Sep-15 17:00S 32°45' E 152°36'612.2
2017-Sep-15 16:30S 32°41' E 152°41'612.5
2017-Sep-15 16:00S 32°36' E 152°46'27112.6
2017-Sep-14 18:29S 28°11' E 153°52'612.1
2017-Sep-14 18:00S 28°05' E 153°52'612.2
2017-Sep-14 17:30S 27°59' E 153°52'1012.1
2017-Sep-14 16:42S 27°49' E 153°52'512.1
2017-Sep-14 16:15S 27°44' E 153°52'312.1
2017-Sep-14 16:00S 27°41' E 153°52'812.6
2017-Sep-14 15:21S 27°32' E 153°51'512.8
2017-Sep-14 14:58S 27°28' E 153°51'  
Track history (hours):
 
Tides and Currents Weather Stations Pressure Air Temp Water Temp Dewpoint Dewpoint Depression Visibility Wind Speed Wind Dir Waves Ship Positions

Hl Atlas

Last reported at 2017-Sep-19 23:03 UTC. Time now 2017-Oct-20 03:36 UTC.
Position S 27°36' E 153°54'.
Warning: this ship's position is 30 days out of date.

Length 270 m; draft 15.3 m.

Type: Cargo ship. MMSI: 440332000.

Date/timePositionNaut miles runAvg speedWind from/ knotsBaromVisibWave heightAir tempDewpointWater temp
2017-Sep-19 23:03S 27°36' E 153°54'112.4
2017-Sep-19 23:00S 27°37' E 153°54'612.2
2017-Sep-19 22:30S 27°43' E 153°56'612.2
2017-Sep-19 22:00S 27°49' E 153°57'612.0
2017-Sep-19 21:30S 27°55' E 153°57'611.8
2017-Sep-19 21:00S 28°01' E 153°59'611.3
2017-Sep-19 20:29S 28°07' E 153°58'511.0
2017-Sep-19 20:00S 28°12' E 153°57'510.5
2017-Sep-19 19:30S 28°17' E 153°57'5 9.8
2017-Sep-19 18:57S 28°23' E 153°56'4 9.5
2017-Sep-19 18:30S 28°27' E 153°56'5 9.5
2017-Sep-19 18:00S 28°32' E 153°55'198 9.1
2017-Sep-18 20:11S 31°45' E 153°06'3 8.1
2017-Sep-18 19:51S 31°47' E 153°05'3 8.1
2017-Sep-18 19:30S 31°50' E 153°04'4 8.1
2017-Sep-18 19:00S 31°54' E 153°03'4 8.6
2017-Sep-18 18:30S 31°58' E 153°01'5 9.1
2017-Sep-18 18:00S 32°02' E 152°59'6 9.7
2017-Sep-18 17:26S 32°07' E 152°57'410.0
2017-Sep-18 17:00S 32°11' E 152°55'5 9.8
2017-Sep-18 16:30S 32°15' E 152°52'510.0
2017-Sep-18 16:00S 32°19' E 152°49'510.1
2017-Sep-18 15:30S 32°24' E 152°45'510.2
2017-Sep-18 15:00S 32°28' E 152°42'5 9.9
2017-Sep-18 14:30S 32°32' E 152°39'5 9.9
2017-Sep-18 14:00S 32°36' E 152°36'510.1
2017-Sep-18 13:30S 32°41' E 152°33'510.1
2017-Sep-18 13:00S 32°45' E 152°29'5 9.7
2017-Sep-18 12:30S 32°49' E 152°26'510.2
2017-Sep-18 12:00S 32°50' E 152°20'510.4
2017-Sep-18 11:30S 32°51' E 152°14'510.2
2017-Sep-18 11:00S 32°53' E 152°08'5 9.9
2017-Sep-18 10:30S 32°54' E 152°02'510.5
2017-Sep-18 10:00S 32°55' E 151°56'5 9.6
2017-Sep-18 09:30S 32°56' E 151°51'3 5.8
2017-Sep-18 09:00S 32°55' E 151°48'1 2.8
2017-Sep-18 08:30S 32°54' E 151°46'1 2.9
2017-Sep-18 08:00S 32°53' E 151°45'0 0.3
2017-Sep-18 07:28S 32°53' E 151°45'0 0.0
2017-Sep-18 06:55S 32°53' E 151°45'0 0.0
2017-Sep-18 06:28S 32°53' E 151°45'0 0.0
2017-Sep-18 05:58S 32°53' E 151°45'0 0.0
2017-Sep-18 05:25S 32°53' E 151°45'0 0.0
2017-Sep-18 04:58S 32°53' E 151°45'0 0.0
2017-Sep-18 04:28S 32°53' E 151°45'0 0.0
2017-Sep-18 03:52S 32°53' E 151°45'0 0.0
2017-Sep-18 03:16S 32°53' E 151°45'0 0.0
2017-Sep-18 02:58S 32°53' E 151°45'0 0.0
2017-Sep-18 02:04S 32°53' E 151°45'0 0.1
2017-Sep-18 01:58S 32°53' E 151°45'0 0.0
2017-Sep-18 01:28S 32°53' E 151°45'0 0.0
2017-Sep-18 00:49S 32°53' E 151°45'0 0.0
2017-Sep-17 23:52S 32°53' E 151°45'0 0.0
2017-Sep-17 23:25S 32°53' E 151°45'0 0.0
2017-Sep-17 22:55S 32°53' E 151°45'0 0.0
2017-Sep-17 22:25S 32°53' E 151°45'0 0.0
2017-Sep-17 21:58S 32°53' E 151°45'0 0.0
2017-Sep-17 21:28S 32°53' E 151°45'0 0.0
2017-Sep-17 20:55S 32°53' E 151°45'0 0.0
2017-Sep-17 20:28S 32°53' E 151°45'0 0.0
2017-Sep-17 19:19S 32°53' E 151°45'0 0.0
2017-Sep-17 18:55S 32°53' E 151°45'0 0.0
2017-Sep-17 18:28S 32°53' E 151°45'0 0.0
2017-Sep-17 17:58S 32°53' E 151°45'0 0.0
2017-Sep-17 17:22S 32°53' E 151°45'0 0.0
2017-Sep-17 16:58S 32°53' E 151°45'0 0.0
2017-Sep-17 16:25S 32°53' E 151°45'0 0.0
2017-Sep-17 15:58S 32°53' E 151°45'0 0.0
2017-Sep-17 15:28S 32°53' E 151°45'0 0.0
2017-Sep-17 14:58S 32°53' E 151°45'0 0.0
2017-Sep-17 14:28S 32°53' E 151°45'0 0.0
2017-Sep-17 13:58S 32°53' E 151°45'0 0.0
2017-Sep-17 13:28S 32°53' E 151°45'0 0.0
2017-Sep-17 12:58S 32°53' E 151°45'0 0.0
2017-Sep-17 12:28S 32°53' E 151°45'0 0.0
2017-Sep-17 11:58S 32°53' E 151°45'0 0.0
2017-Sep-17 11:07S 32°53' E 151°45'0 0.0
2017-Sep-17 10:58S 32°53' E 151°45'0 0.0
2017-Sep-17 10:28S 32°53' E 151°45'0 0.0
2017-Sep-17 09:58S 32°53' E 151°45'0 0.0
2017-Sep-17 09:28S 32°53' E 151°45'0 0.0
2017-Sep-17 08:52S 32°53' E 151°45'0 0.0
2017-Sep-17 08:28S 32°53' E 151°45'0 0.0
2017-Sep-17 07:43S 32°53' E 151°45'0 0.0
2017-Sep-17 07:28S 32°53' E 151°45'0 0.0
2017-Sep-17 06:58S 32°53' E 151°45'0 0.0
2017-Sep-17 06:28S 32°53' E 151°45'0 0.0
2017-Sep-17 05:55S 32°53' E 151°45'0 0.0
2017-Sep-17 05:13S 32°53' E 151°45'0 0.0
2017-Sep-17 04:58S 32°53' E 151°45'0 0.0
2017-Sep-17 04:28S 32°53' E 151°45'0 0.0
2017-Sep-17 03:55S 32°53' E 151°45'0 0.0
2017-Sep-17 03:25S 32°53' E 151°45'0 0.0
2017-Sep-17 02:58S 32°53' E 151°45'0 0.0
2017-Sep-17 02:28S 32°53' E 151°45'0 0.0
2017-Sep-17 01:58S 32°53' E 151°45'0 0.0
2017-Sep-17 01:28S 32°53' E 151°45'0 0.0
2017-Sep-17 00:58S 32°53' E 151°45'0 0.0
2017-Sep-17 00:28S 32°53' E 151°45'0 0.0
2017-Sep-16 23:58S 32°53' E 151°45'0 0.0
2017-Sep-16 23:25S 32°53' E 151°45'0 0.0
2017-Sep-16 23:00S 32°53' E 151°45'1 2.1
2017-Sep-16 22:25S 32°54' E 151°46'2 4.2
2017-Sep-16 22:00S 32°55' E 151°48'4 8.2
2017-Sep-16 21:30S 32°57' E 151°52'3 6.7
2017-Sep-16 21:00S 33°00' E 151°53'2 4.4
2017-Sep-16 20:30S 33°02' E 151°52'6 7.3
2017-Sep-16 19:40S 33°07' E 151°57'2 9.8
2017-Sep-16 19:30S 33°06' E 151°59'5 9.9
2017-Sep-16 19:00S 33°02' E 152°03'5 9.2
2017-Sep-16 18:30S 32°59' E 152°07'5 9.1
2017-Sep-16 18:00S 32°57' E 152°12'4 8.3
2017-Sep-16 17:30S 32°56' E 152°17'2 3.3
2017-Sep-16 16:59S 32°55' E 152°15'1 2.4
2017-Sep-16 16:29S 32°56' E 152°14'1 2.4
2017-Sep-16 16:00S 32°57' E 152°13'1 2.1
2017-Sep-16 15:29S 32°58' E 152°12'1 1.9
2017-Sep-16 14:59S 32°59' E 152°12'1 2.0
2017-Sep-16 14:29S 32°60' E 152°11'1 1.9
2017-Sep-16 13:59S 33°00' E 152°11'1 2.0
2017-Sep-16 13:29S 33°01' E 152°10'1 2.1
2017-Sep-16 12:59S 33°02' E 152°09'1 2.3
2017-Sep-16 12:29S 33°03' E 152°09'1 2.5
2017-Sep-16 12:00S 33°04' E 152°08'1 2.7
2017-Sep-16 11:29S 33°05' E 152°07'1 2.7
2017-Sep-16 10:59S 33°06' E 152°06'1 3.1
2017-Sep-16 10:30S 33°07' E 152°04'5 9.2
2017-Sep-16 10:00S 33°02' E 152°05'510.2
2017-Sep-16 09:30S 32°58' E 152°08'1 1.4
2017-Sep-16 09:00S 32°57' E 152°08'1 2.3
2017-Sep-16 08:30S 32°58' E 152°07'1 2.6
2017-Sep-16 08:00S 32°59' E 152°07'1 2.7
2017-Sep-16 07:28S 33°01' E 152°06'2 3.8
2017-Sep-16 07:01S 33°02' E 152°06'5 9.9
2017-Sep-16 06:31S 33°03' E 152°12'510.9
2017-Sep-16 06:00S 33°03' E 152°18'1 2.2
2017-Sep-16 05:28S 33°05' E 152°18'1 1.9
2017-Sep-16 04:58S 33°05' E 152°17'1 2.0
2017-Sep-16 04:28S 33°05' E 152°16'1 1.7
2017-Sep-16 03:49S 33°06' E 152°15'1 1.7
2017-Sep-16 03:19S 33°06' E 152°14'1 1.7
2017-Sep-16 02:58S 33°06' E 152°13'1 1.7
2017-Sep-16 02:28S 33°06' E 152°12'1 1.6
2017-Sep-16 01:55S 33°07' E 152°11'1 1.8
2017-Sep-16 01:25S 33°07' E 152°10'1 1.7
2017-Sep-16 00:58S 33°07' E 152°09'1 1.5
2017-Sep-16 00:28S 33°07' E 152°08'1 1.7
2017-Sep-15 23:58S 33°08' E 152°07'1 1.7
2017-Sep-15 23:28S 33°08' E 152°06'1 1.8
2017-Sep-15 22:49S 33°08' E 152°05'1 2.0
2017-Sep-15 22:28S 33°08' E 152°04'1 2.1
2017-Sep-15 21:58S 33°09' E 152°03'1 1.9
2017-Sep-15 21:28S 33°09' E 152°02'2 3.3
2017-Sep-15 21:00S 33°08' E 152°00'611.5
2017-Sep-15 20:30S 33°03' E 151°57'4 7.2
2017-Sep-15 20:00S 33°00' E 152°00'510.4
2017-Sep-15 19:30S 32°58' E 152°06'611.6
2017-Sep-15 19:00S 32°56' E 152°13'611.3
2017-Sep-15 18:30S 32°54' E 152°19'611.6
2017-Sep-15 18:00S 32°52' E 152°25'611.2
2017-Sep-15 17:30S 32°50' E 152°31'611.9
2017-Sep-15 17:00S 32°45' E 152°36'612.2
2017-Sep-15 16:30S 32°41' E 152°41'612.5
2017-Sep-15 16:00S 32°36' E 152°46'27112.6
2017-Sep-14 18:29S 28°11' E 153°52'612.1
2017-Sep-14 18:00S 28°05' E 153°52'612.2
2017-Sep-14 17:30S 27°59' E 153°52'1012.1
2017-Sep-14 16:42S 27°49' E 153°52'512.1
2017-Sep-14 16:15S 27°44' E 153°52'312.1
2017-Sep-14 16:00S 27°41' E 153°52'812.6
2017-Sep-14 15:21S 27°32' E 153°51'512.8
2017-Sep-14 14:58S 27°28' E 153°51'  

Dump ship's entire track history